^^
Meteo Knjazevac Station Historical Data
Daily Summary for October 31, 2021 Units:  English    Metric   Both
Daily Weekly Monthly Yearly Custom
  High: Low: Average:
Temperature: 60.4 °F 35.8 °F 45.2 °F
Dew Point: 50.7 °F 35.3 °F 42.2 °F
Humidity: 99% 66% 90%
Wind Speed: 6mph 0mph 2.3mph
Wind Gust: 12mph - -
Wind- - South
Pressure: 30.31 in 30.14 in -
Precipitation: 0.00 in    
Historical Graphs
 
 
Tabular Data for October 31, 2021
Time Temperature Dew Point Pressure Wind Wind Speed Wind Gust Humidity Rainfall Rate (Hourly) solar Conditions
00:00 35.8 °F 35.3 °F 30.31 in WNW 2 mph 6 mph 98% 0.00 in 0 W/m2
00:10 36.3 °F 36 °F 30.31 in WNW 2 mph 4 mph 99% 0.00 in 0 W/m2
00:20 36.7 °F 36.4 °F 30.31 in West 2 mph 4 mph 99% 0.00 in 0 W/m2
00:30 37 °F 36.8 °F 30.30 in Calm   2 mph 99% 0.00 in 0 W/m2
00:40 37.2 °F 37 °F 30.30 in Calm   1 mph 99% 0.00 in 0 W/m2
00:50 37.4 °F 37.1 °F 30.30 in West 1 mph 2 mph 99% 0.00 in 0 W/m2
01:00 37.6 °F 37.3 °F 30.30 in Calm   2 mph 99% 0.00 in 0 W/m2
01:10 37.8 °F 37.5 °F 30.30 in WNW 1 mph 2 mph 99% 0.00 in 0 W/m2
01:20 37.9 °F 37.7 °F 30.30 in Calm   2 mph 99% 0.00 in 0 W/m2
01:30 38.1 °F 37.9 °F 30.30 in NNW 1 mph 2 mph 99% 0.00 in 0 W/m2
01:40 38.3 °F 38 °F 30.30 in Calm   2 mph 99% 0.00 in 0 W/m2
01:50 38.5 °F 38.2 °F 30.30 in Calm   2 mph 99% 0.00 in 0 W/m2
02:00 38.8 °F 38.6 °F 30.30 in Calm   2 mph 99% 0.00 in 0 W/m2
02:10 39.2 °F 38.9 °F 30.30 in North 1 mph 2 mph 99% 0.00 in 0 W/m2
02:20 39.2 °F 39 °F 30.30 in Calm   2 mph 99% 0.00 in 0 W/m2
02:30 39.6 °F 39.3 °F 30.29 in Calm   1 mph 99% 0.00 in 0 W/m2
02:40 39.6 °F 39.3 °F 30.29 in Calm   2 mph 99% 0.00 in 0 W/m2
02:50 39.7 °F 39.5 °F 30.29 in Calm   2 mph 99% 0.00 in 0 W/m2
02:00 39.9 °F 39.7 °F 30.29 in Calm   1 mph 99% 0.00 in 0 W/m2
02:10 40.1 °F 39.8 °F 30.29 in Calm   2 mph 99% 0.00 in 0 W/m2
02:20 40.1 °F 39.8 °F 30.29 in North 1 mph 2 mph 99% 0.00 in 0 W/m2
02:30 40.3 °F 40.1 °F 30.28 in NNE 2 mph 3 mph 99% 0.00 in 0 W/m2
02:40 40.5 °F 40.2 °F 30.28 in ENE 2 mph 6 mph 99% 0.00 in 0 W/m2
02:50 40.6 °F 40.4 °F 30.28 in East 3 mph 5 mph 99% 0.00 in 0 W/m2
03:00 40.7 °F 40.4 °F 30.28 in East 3 mph 5 mph 99% 0.00 in 0 W/m2
03:10 40.8 °F 40.6 °F 30.27 in East 2 mph 5 mph 99% 0.00 in 0 W/m2
03:20 40.8 °F 40.6 °F 30.27 in East 5 mph 7 mph 99% 0.00 in 0 W/m2
03:30 40.8 °F 40.6 °F 30.27 in ENE 2 mph 5 mph 99% 0.00 in 0 W/m2
03:40 40.9 °F 40.6 °F 30.27 in East 2 mph 5 mph 99% 0.00 in 0 W/m2
03:50 41 °F 40.7 °F 30.27 in ENE 3 mph 6 mph 99% 0.00 in 0 W/m2
04:00 41 °F 40.7 °F 30.27 in NE 2 mph 5 mph 99% 0.00 in 0 W/m2
04:10 41 °F 40.7 °F 30.27 in East 5 mph 8 mph 99% 0.00 in 0 W/m2
04:20 40.8 °F 40.6 °F 30.27 in East 3 mph 7 mph 99% 0.00 in 0 W/m2
04:30 40.8 °F 40.5 °F 30.27 in East 6 mph 8 mph 99% 0.00 in 0 W/m2
04:40 40.6 °F 40.3 °F 30.27 in East 5 mph 9 mph 99% 0.00 in 0 W/m2
04:50 40.3 °F 40 °F 30.27 in East 3 mph 7 mph 99% 0.00 in 0 W/m2
05:00 40.1 °F 39.8 °F 30.27 in East 5 mph 7 mph 99% 0.00 in 0 W/m2
05:10 40.1 °F 39.8 °F 30.27 in East 5 mph 10 mph 99% 0.00 in 0 W/m2
05:20 39.9 °F 39.7 °F 30.26 in ENE 3 mph 6 mph 99% 0.00 in 0 W/m2
05:30 39.7 °F 39.5 °F 30.26 in ENE 2 mph 9 mph 99% 0.00 in 0 W/m2
05:40 39.6 °F 39.3 °F 30.26 in ENE 5 mph 8 mph 99% 0.00 in 0 W/m2
05:50 39.6 °F 39.3 °F 30.26 in ENE 3 mph 7 mph 99% 0.00 in 0 W/m2
06:00 39.4 °F 39.1 °F 30.26 in ENE 3 mph 6 mph 99% 0.00 in 0 W/m2
06:10 39.4 °F 39.1 °F 30.26 in ENE 5 mph 7 mph 99% 0.00 in 2 W/m2
06:20 39.2 °F 38.9 °F 30.26 in East 5 mph 8 mph 99% 0.00 in 4 W/m2
06:30 39.1 °F 38.8 °F 30.26 in East 6 mph 9 mph 99% 0.00 in 9 W/m2
06:40 39 °F 38.8 °F 30.26 in East 3 mph 9 mph 99% 0.00 in 13 W/m2
06:50 39 °F 38.8 °F 30.26 in East 5 mph 8 mph 99% 0.00 in 18 W/m2
07:00 39 °F 38.8 °F 30.26 in East 3 mph 8 mph 99% 0.00 in 25 W/m2
07:10 38.8 °F 38.6 °F 30.26 in East 6 mph 9 mph 99% 0.00 in 31 W/m2
07:20 38.8 °F 38.6 °F 30.26 in ENE 5 mph 9 mph 99% 0.00 in 40 W/m2
07:30 38.8 °F 38.6 °F 30.27 in ENE 3 mph 8 mph 99% 0.00 in 47 W/m2
07:40 39 °F 38.8 °F 30.27 in East 3 mph 8 mph 99% 0.00 in 50 W/m2
07:50 39.2 °F 38.9 °F 30.27 in ENE 2 mph 8 mph 99% 0.00 in 71 W/m2
08:00 39.4 °F 39.1 °F 30.27 in NE 3 mph 6 mph 99% 0.00 in 78 W/m2
08:10 39.7 °F 39.5 °F 30.27 in ENE 2 mph 7 mph 99% 0.00 in 85 W/m2
08:20 40 °F 39.7 °F 30.27 in ENE 3 mph 6 mph 99% 0.00 in 97 W/m2
08:30 40.3 °F 40.1 °F 30.27 in ENE 3 mph 6 mph 99% 0.00 in 111 W/m2
08:40 40.6 °F 40.4 °F 30.27 in East 2 mph 6 mph 99% 0.00 in 120 W/m2
08:50 41.1 °F 40.8 °F 30.26 in NE 2 mph 5 mph 99% 0.00 in 140 W/m2
09:00 41.5 °F 41.3 °F 30.26 in NNE 1 mph 4 mph 99% 0.00 in 131 W/m2
09:10 41.9 °F 41.6 °F 30.26 in NNE 1 mph 4 mph 99% 0.00 in 140 W/m2
09:20 42.3 °F 42 °F 30.26 in Calm   3 mph 99% 0.00 in 151 W/m2
09:30 42.8 °F 42.5 °F 30.26 in Calm   2 mph 99% 0.00 in 158 W/m2
09:40 43.2 °F 42.9 °F 30.25 in Calm   2 mph 99% 0.00 in 161 W/m2
09:50 43.8 °F 43.5 °F 30.25 in West 1 mph 2 mph 99% 0.00 in 164 W/m2
10:10 44.7 °F 44.4 °F 30.25 in WNW 1 mph 3 mph 99% 0.00 in 207 W/m2
10:20 45.1 °F 44.9 °F 30.25 in WNW 1 mph 2 mph 99% 0.00 in 183 W/m2
10:30 45.6 °F 45.3 °F 30.25 in SW 2 mph 4 mph 99% 0.00 in 224 W/m2
10:40 46.1 °F 45.6 °F 30.24 in WSW 1 mph 4 mph 98% 0.00 in 245 W/m2
10:50 46.8 °F 46.2 °F 30.24 in Calm   3 mph 98% 0.00 in 307 W/m2
11:00 47.7 °F 46.6 °F 30.23 in Calm   4 mph 96% 0.00 in 271 W/m2
11:10 48.6 °F 47.2 °F 30.22 in South 2 mph 3 mph 95% 0.00 in 496 W/m2
11:20 49.7 °F 48.1 °F 30.22 in SSW 1 mph 4 mph 94% 0.00 in 495 W/m2
11:30 51 °F 48.4 °F 30.21 in WSW 1 mph 4 mph 91% 0.00 in 493 W/m2
11:40 52.1 °F 48.9 °F 30.21 in SW 2 mph 5 mph 89% 0.00 in 490 W/m2
11:50 53.1 °F 49 °F 30.21 in SSW 1 mph 5 mph 86% 0.00 in 485 W/m2
12:00 54.1 °F 49.7 °F 30.20 in South 2 mph 5 mph 85% 0.00 in 478 W/m2
12:10 55.5 °F 50.1 °F 30.19 in WSW 3 mph 8 mph 82% 0.00 in 470 W/m2
12:20 56.7 °F 50.3 °F 30.19 in North 1 mph 7 mph 79% 0.00 in 460 W/m2
12:30 57.8 °F 50.7 °F 30.18 in NNE 6 mph 9 mph 77% 0.00 in 449 W/m2
12:40 58.6 °F 50.4 °F 30.18 in North 3 mph 7 mph 74% 0.00 in 437 W/m2
12:50 59.3 °F 49.5 °F 30.17 in NNE 6 mph 12 mph 70% 0.00 in 423 W/m2
13:00 59.9 °F 49.7 °F 30.17 in North 5 mph 9 mph 69% 0.00 in 407 W/m2
13:10 60.3 °F 49.7 °F 30.16 in North 3 mph 9 mph 68% 0.00 in 391 W/m2
13:20 60.4 °F 49.8 °F 30.16 in North 5 mph 8 mph 68% 0.00 in 373 W/m2
13:30 60.3 °F 49.3 °F 30.16 in North 3 mph 9 mph 67% 0.00 in 355 W/m2
13:40 60.1 °F 49.1 °F 30.15 in North 3 mph 9 mph 67% 0.00 in 335 W/m2
13:50 60.1 °F 49.1 °F 30.15 in North 3 mph 9 mph 67% 0.00 in 314 W/m2
14:00 60.1 °F 48.7 °F 30.15 in North 6 mph 9 mph 66% 0.00 in 292 W/m2
14:10 59.7 °F 48.7 °F 30.15 in North 5 mph 11 mph 67% 0.00 in 270 W/m2
14:20 59.5 °F 48.6 °F 30.15 in North 5 mph 11 mph 67% 0.00 in 247 W/m2
14:30 59 °F 48.1 °F 30.15 in North 6 mph 11 mph 67% 0.00 in 223 W/m2
14:40 58.5 °F 47.5 °F 30.14 in North 5 mph 10 mph 67% 0.00 in 199 W/m2
14:50 58.3 °F 47.8 °F 30.14 in North 5 mph 10 mph 68% 0.00 in 174 W/m2
15:00 57.7 °F 47.6 °F 30.14 in North 3 mph 10 mph 69% 0.00 in 147 W/m2
15:10 57.3 °F 47.2 °F 30.14 in North 3 mph 7 mph 69% 0.00 in 123 W/m2
15:20 56.8 °F 46.7 °F 30.14 in North 2 mph 8 mph 69% 0.00 in 99 W/m2
15:30 56.2 °F 46.2 °F 30.14 in North 5 mph 8 mph 69% 0.00 in 79 W/m2
15:40 55.8 °F 46.1 °F 30.14 in NNW 5 mph 8 mph 70% 0.00 in 58 W/m2
15:50 55 °F 46.2 °F 30.14 in NNW 5 mph 9 mph 72% 0.00 in 38 W/m2
16:00 54.4 °F 45.9 °F 30.14 in North 5 mph 8 mph 73% 0.00 in 19 W/m2
16:10 53.8 °F 45.3 °F 30.14 in NNW 5 mph 8 mph 73% 0.00 in 4 W/m2
16:20 53.2 °F 45.1 °F 30.14 in North 2 mph 9 mph 74% 0.00 in 7 W/m2
16:30 52.5 °F 44.8 °F 30.14 in NNW 5 mph 10 mph 75% 0.00 in 0 W/m2
16:40 52 °F 45 °F 30.14 in NNW 3 mph 8 mph 77% 0.00 in 0 W/m2
16:50 51.5 °F 44.9 °F 30.14 in NNW 3 mph 7 mph 78% 0.00 in 0 W/m2
17:00 51.1 °F 44.8 °F 30.15 in NNW 1 mph 7 mph 79% 0.00 in 0 W/m2
17:10 50.6 °F 44.4 °F 30.15 in Calm   5 mph 79% 0.00 in 0 W/m2
17:20 50.1 °F 43.8 °F 30.15 in Calm   3 mph 79% 0.00 in 0 W/m2
17:30 49.4 °F 43.5 °F 30.15 in ESE 1 mph 2 mph 80% 0.00 in 0 W/m2
17:40 48.7 °F 42.8 °F 30.15 in SE 1 mph 3 mph 80% 0.00 in 0 W/m2
17:50 47.8 °F 42.3 °F 30.15 in SSE 1 mph 4 mph 81% 0.00 in 0 W/m2
18:00 47.2 °F 42.3 °F 30.15 in South 1 mph 3 mph 83% 0.00 in 0 W/m2
18:10 46.6 °F 42 °F 30.15 in NNW 1 mph 3 mph 84% 0.00 in 0 W/m2
18:20 46 °F 41.5 °F 30.15 in WSW 1 mph 3 mph 84% 0.00 in 0 W/m2
18:30 45.4 °F 41.2 °F 30.15 in West 1 mph 2 mph 85% 0.00 in 0 W/m2
18:40 44.9 °F 40.6 °F 30.15 in WSW 1 mph 2 mph 85% 0.00 in 0 W/m2
18:50 44.2 °F 40.3 °F 30.15 in WSW 2 mph 3 mph 86% 0.00 in 0 W/m2
19:00 43.7 °F 40.4 °F 30.15 in West 2 mph 3 mph 88% 0.00 in 0 W/m2
19:10 43.3 °F 40 °F 30.15 in WSW 2 mph 4 mph 88% 0.00 in 0 W/m2
19:20 42.8 °F 39.8 °F 30.15 in West 2 mph 4 mph 89% 0.00 in 0 W/m2
19:30 42.4 °F 39.4 °F 30.15 in WSW 1 mph 3 mph 89% 0.00 in 0 W/m2
19:40 41.9 °F 39.2 °F 30.15 in WSW 2 mph 3 mph 90% 0.00 in 0 W/m2
19:50 41.5 °F 38.8 °F 30.15 in Calm   3 mph 90% 0.00 in 0 W/m2
20:00 41.2 °F 38.8 °F 30.15 in WNW 2 mph 3 mph 91% 0.00 in 0 W/m2
20:10 40.9 °F 38.2 °F 30.15 in WNW 1 mph 4 mph 90% 0.00 in 0 W/m2
20:20 40.3 °F 37.6 °F 30.15 in WNW 2 mph 3 mph 90% 0.00 in 0 W/m2
20:30 39.9 °F 37.5 °F 30.15 in Calm   2 mph 91% 0.00 in 0 W/m2
20:40 39.6 °F 36.9 °F 30.15 in Calm   2 mph 90% 0.00 in 0 W/m2
20:50 39.1 °F 36.7 °F 30.15 in Calm   2 mph 91% 0.00 in 0 W/m2
21:00 38.8 °F 36.4 °F 30.15 in Calm   2 mph 91% 0.00 in 0 W/m2
Knjazevac, Serbia
Compliments of Weather Underground - 2 mb